Time;durP1;ratioP1;P1;durP2;ratioP2;P2;SDS_P1;SDS_P2;PMS_P1;PMS_P2;Temp;Humidity;BMP_temperature;BMP_pressure;BME280_temperature;BME280_humidity;BME280_pressure;Samples;Min_cycle;Max_cycle;Signal;HPM_P1;HPM_P2
2022/05/01 00:01:49;;;;;;;23.40;20.83;;;;;;;10.80;91.13;99174.59;4965210;28;104239;-66
2022/05/01 00:04:20;;;;;;;19.30;17.30;;;;;;;10.79;91.01;99175.53;4995129;28;103346;-67
2022/05/01 00:06:48;;;;;;;28.03;23.53;;;;;;;10.77;90.60;99177.44;4991212;28;103105;-66
2022/05/01 00:09:16;;;;;;;26.80;23.13;;;;;;;10.84;90.18;99173.44;4989973;28;102707;-63
2022/05/01 00:11:46;;;;;;;25.57;22.93;;;;;;;10.81;89.69;99173.63;4972155;28;103955;-62
2022/05/01 00:14:19;;;;;;;22.87;20.53;;;;;;;10.86;89.55;99170.69;4990312;28;103384;-67
2022/05/01 00:16:48;;;;;;;24.83;22.13;;;;;;;10.69;90.33;99166.53;4991439;28;102898;-62
2022/05/01 00:19:16;;;;;;;19.80;17.70;;;;;;;10.75;90.60;99163.44;4992485;28;102786;-67
2022/05/01 00:22:06;;;;;;;22.93;20.53;;;;;;;10.79;89.69;99164.97;4994523;28;103345;-62
2022/05/01 00:24:34;;;;;;;17.67;15.57;;;;;;;10.84;89.66;99157.56;4990102;28;103225;-62
2022/05/01 00:27:04;;;;;;;27.13;22.73;;;;;;;10.66;89.97;99153.50;4991449;28;102996;-62
2022/05/01 00:29:32;;;;;;;32.43;25.27;;;;;;;10.44;91.50;99163.78;4995500;28;103095;-67
2022/05/01 00:32:00;;;;;;;26.20;23.50;;;;;;;10.35;91.74;99164.38;4997393;28;103997;-67
2022/05/01 00:37:14;;;;;;;19.03;17.13;;;;;;;10.55;91.10;99156.00;4993331;28;103385;-67
2022/05/01 00:39:44;;;;;;;27.03;24.23;;;;;;;10.54;90.99;99159.59;4980066;28;102964;-67
2022/05/01 00:42:17;;;;;;;19.83;17.73;;;;;;;10.65;90.76;99156.22;4994849;28;103205;-62
2022/05/01 00:44:45;;;;;;;22.93;20.27;;;;;;;10.59;90.96;99157.47;4996645;28;103187;-62
2022/05/01 00:47:13;;;;;;;25.57;22.90;;;;;;;10.61;90.58;99160.03;4994430;28;102685;-62
2022/05/01 00:49:41;;;;;;;23.07;19.03;;;;;;;10.66;89.95;99164.09;4995021;28;103703;-67
2022/05/01 00:52:12;;;;;;;22.13;17.90;;;;;;;10.72;89.33;99158.38;4992707;28;103228;-67
2022/05/01 00:54:43;;;;;;;17.50;15.73;;;;;;;10.78;88.68;99155.31;4994913;28;103260;-67
2022/05/01 00:57:12;;;;;;;18.07;16.17;;;;;;;10.82;88.94;99166.56;4997546;28;103463;-62
2022/05/01 00:59:41;;;;;;;26.27;23.43;;;;;;;10.74;88.08;99159.13;4994335;28;103819;-62
2022/05/01 01:02:11;;;;;;;24.40;21.80;;;;;;;10.73;88.91;99162.72;4992398;28;103987;-62
2022/05/01 01:04:39;;;;;;;20.33;18.27;;;;;;;10.76;88.94;99154.59;4996739;28;103192;-61
2022/05/01 01:07:07;;;;;;;24.13;21.53;;;;;;;10.81;88.49;99165.69;4976449;28;102575;-62
2022/05/01 01:09:36;;;;;;;19.73;17.60;;;;;;;10.87;88.94;99154.72;4975276;28;102780;-62
2022/05/01 01:14:52;;;;;;;31.03;23.60;;;;;;;10.59;90.35;99162.75;4993797;28;103168;-62
2022/05/01 01:17:20;;;;;;;19.57;17.53;;;;;;;10.63;90.23;99150.22;4997742;28;102740;-62
2022/05/01 01:19:48;;;;;;;19.73;17.63;;;;;;;10.68;90.13;99156.03;4995539;28;103570;-62
2022/05/01 01:22:18;;;;;;;23.40;21.00;;;;;;;10.73;89.39;99160.06;4970955;28;104257;-62
2022/05/01 01:24:46;;;;;;;27.43;23.83;;;;;;;10.62;90.96;99153.78;4997072;28;103719;-62
2022/05/01 01:27:16;;;;;;;23.43;21.03;;;;;;;10.72;90.42;99150.44;4996698;28;102708;-62
2022/05/01 01:32:34;;;;;;;23.77;20.43;;;;;;;10.77;88.59;99151.00;4995887;28;103094;-62
2022/05/01 01:35:03;;;;;;;20.13;17.93;;;;;;;10.77;88.95;99156.28;4992936;28;103370;-62
2022/05/01 01:37:34;;;;;;;28.70;24.00;;;;;;;10.69;89.32;99148.03;4991414;28;102660;-62
2022/05/01 01:40:03;;;;;;;29.67;25.63;;;;;;;10.69;89.20;99142.75;4996148;28;104418;-62
2022/05/01 01:42:32;;;;;;;23.47;20.93;;;;;;;10.77;89.49;99151.00;4993140;28;103309;-67
2022/05/01 01:45:01;;;;;;;28.70;25.57;;;;;;;10.71;88.81;99146.13;4996520;28;103188;-67
2022/05/01 01:47:29;;;;;;;26.17;21.77;;;;;;;10.77;88.33;99147.50;4966168;28;102680;-63
2022/05/01 01:49:57;;;;;;;30.33;23.13;;;;;;;10.81;88.05;99141.91;4996652;28;103824;-62
2022/05/01 01:52:25;;;;;;;27.17;24.07;;;;;;;10.83;87.94;99145.31;4994551;28;104169;-67
2022/05/01 01:54:56;;;;;;;30.20;26.30;;;;;;;10.77;88.78;99137.78;4996499;28;103195;-62
2022/05/01 01:57:27;;;;;;;23.10;20.27;;;;;;;10.82;88.85;99140.97;4973358;28;102723;-67
2022/05/01 01:59:55;;;;;;;20.40;18.30;;;;;;;10.82;88.40;99137.47;4971864;28;104140;-62
2022/05/01 02:02:23;;;;;;;19.40;17.40;;;;;;;10.82;88.63;99127.75;4973246;28;104171;-63
2022/05/01 02:04:51;;;;;;;22.10;19.80;;;;;;;10.82;89.15;99130.41;4992590;28;103213;-67
2022/05/01 02:07:19;;;;;;;17.70;15.80;;;;;;;10.82;89.23;99127.75;4996643;28;103041;-67
2022/05/01 02:09:47;;;;;;;16.90;15.00;;;;;;;10.85;88.37;99122.28;4991152;28;103768;-67
2022/05/01 02:12:20;;;;;;;20.20;16.53;;;;;;;10.79;88.50;99127.09;4969903;28;104117;-67
2022/05/01 02:14:48;;;;;;;30.87;24.70;;;;;;;10.73;88.85;99123.06;4993691;28;103191;-67
2022/05/01 02:17:18;;;;;;;20.27;17.60;;;;;;;10.74;88.89;99119.50;4995700;28;102711;-68
2022/05/01 02:19:46;;;;;;;18.20;16.20;;;;;;;10.78;88.42;99125.44;4971409;28;102795;-67
2022/05/01 02:22:15;;;;;;;19.20;16.43;;;;;;;10.80;88.13;99115.59;4995421;28;103318;-67
2022/05/01 02:24:43;;;;;;;31.63;25.03;;;;;;;10.60;89.22;99111.63;4995417;28;103332;-67
2022/05/01 02:27:11;;;;;;;29.37;23.60;;;;;;;10.65;89.16;99119.25;4994193;28;102633;-67
2022/05/01 02:29:42;;;;;;;32.57;26.87;;;;;;;10.41;90.03;99111.16;4994410;28;102749;-67
2022/05/01 02:32:10;;;;;;;31.50;26.13;;;;;;;10.57;88.95;99118.91;4993134;28;103072;-67
2022/05/01 02:34:38;;;;;;;34.27;28.20;;;;;;;10.45;89.33;99112.63;4992537;28;103216;-67
2022/05/01 02:37:07;;;;;;;35.17;27.83;;;;;;;10.39;89.09;99113.03;4990233;28;102588;-67
2022/05/01 02:39:35;;;;;;;;;;;;;;;10.17;90.65;99124.13;4993592;28;104076;-67
2022/05/01 02:42:03;;;;;;;30.10;26.92;;;;;;;10.74;88.65;99116.84;4995269;28;103600;-67
2022/05/01 02:44:31;;;;;;;33.47;30.23;;;;;;;11.00;86.60;99110.66;4993341;28;102980;-67
2022/05/01 02:47:01;;;;;;;28.63;25.80;;;;;;;11.29;86.03;99113.09;4966513;28;102829;-67
2022/05/01 02:49:29;;;;;;;32.17;28.98;;;;;;;11.44;84.41;99106.78;4970278;28;102720;-68
2022/05/01 02:51:58;;;;;;;28.05;25.17;;;;;;;11.61;83.59;99106.44;4994070;28;103281;-67
2022/05/01 02:54:27;;;;;;;30.27;27.25;;;;;;;11.57;84.19;99100.50;4992357;28;103273;-67
2022/05/01 02:56:55;;;;;;;35.97;32.30;;;;;;;11.45;84.61;99108.47;4989815;28;102641;-67
2022/05/01 02:59:23;;;;;;;27.37;24.87;;;;;;;11.70;83.51;99103.19;4995345;28;103887;-67
2022/05/01 03:01:51;;;;;;;35.80;32.10;;;;;;;11.29;84.98;99105.16;4975035;28;104558;-67
2022/05/01 03:04:21;;;;;;;38.00;33.92;;;;;;;11.05;85.70;99113.00;4992368;28;103185;-67
2022/05/01 03:06:49;;;;;;;33.63;30.33;;;;;;;11.38;84.00;99108.03;4965617;28;102660;-68
2022/05/01 03:09:20;;;;;;;31.67;28.42;;;;;;;11.60;83.36;99104.75;4964303;28;102775;-67
2022/05/01 03:11:51;;;;;;;26.70;24.10;;;;;;;11.74;82.76;99104.66;4967796;28;103223;-63
2022/05/01 03:14:19;;;;;;;34.45;30.98;;;;;;;11.45;83.50;99105.84;4972112;28;103238;-63
2022/05/01 03:16:46;;;;;;;;;;;;;;;10.81;86.05;99106.69;4975054;28;102729;-63
2022/05/01 03:22:13;;;;;;;;;;;;;;;10.70;87.77;99099.50;4994148;28;103241;-63
2022/05/01 03:24:42;;;;;;;;;;;;;;;10.45;89.22;99100.25;4977215;28;104449;-67
2022/05/01 03:27:10;;;;;;;;;;;;;;;10.19;90.18;99100.28;4994070;28;102933;-63
2022/05/01 03:29:38;;;;;;;;;;;;;;;10.34;90.19;99100.13;4978638;28;103960;-68
2022/05/01 03:32:10;;;;;;;;;;;;;;;10.29;90.38;99094.31;4973131;28;104316;-67
2022/05/01 03:34:39;;;;;;;;;;;;;;;10.28;90.99;99097.03;4994710;28;104169;-67
2022/05/01 03:37:08;;;;;;;;;;;;;;;10.28;91.00;99089.94;4972091;28;103161;-67
2022/05/01 03:39:36;;;;;;;;;;;;;;;10.29;90.96;99093.44;4993719;28;102615;-66
2022/05/01 03:42:04;;;;;;;;;;;;;;;10.34;90.27;99093.97;4991671;28;103244;-63
2022/05/01 03:44:32;;;;;;;;;;;;;;;9.97;92.69;99095.47;4991349;28;103187;-63
2022/05/01 03:46:59;;;;;;;;;;;;;;;10.10;93.00;99090.28;4993291;28;102639;-67
2022/05/01 03:49:28;;;;;;;;;;;;;;;10.00;91.88;99090.00;4990800;28;103729;-62
2022/05/01 03:51:56;;;;;;;;;;;;;;;10.09;92.08;99093.84;4994598;28;103227;-67
2022/05/01 03:54:25;;;;;;;;;;;;;;;10.03;91.80;99095.09;4995301;28;103129;-63
2022/05/01 03:56:53;;;;;;;;;;;;;;;10.15;92.65;99098.78;4995305;28;102658;-63
2022/05/01 03:59:21;;;;;;;;;;;;;;;9.99;93.81;99098.88;4991540;28;102768;-62
2022/05/01 04:01:49;;;;;;;;;;;;;;;9.61;95.28;99109.19;4965552;28;104064;-63
2022/05/01 04:04:19;;;;;;;;;;;;;;;9.79;95.45;99102.78;4993951;28;103171;-67
2022/05/01 04:06:47;;;;;;;;;;;;;;;9.67;96.42;99105.31;4968712;28;102668;-67
2022/05/01 04:09:15;;;;;;;;;;;;;;;9.72;96.14;99105.88;4995574;28;102645;-63
2022/05/01 04:11:46;;;;;;;;;;;;;;;9.76;96.05;99107.41;4994055;28;103238;-67
2022/05/01 04:14:14;;;;;;;;;;;;;;;9.75;95.44;99106.53;4969975;28;103230;-67
2022/05/01 04:16:42;;;;;;;;;;;;;;;9.65;96.77;99102.78;4996522;28;102689;-63
2022/05/01 04:19:12;;;;;;;;;;;;;;;9.80;96.43;99103.59;4995393;28;103786;-63
2022/05/01 04:21:40;;;;;;;;;;;;;;;9.89;95.38;99103.88;4992401;28;103196;-63
2022/05/01 04:24:08;;;;;;;;;;;;;;;9.94;94.97;99095.66;4992849;28;103213;-62
2022/05/01 04:26:36;;;;;;;;;;;;;;;9.85;94.85;99102.38;4992641;28;102542;-63
2022/05/01 04:31:53;;;;;;;;;;;;;;;9.78;95.88;99098.44;4973635;28;104219;-67
2022/05/01 04:34:23;;;;;;;;;;;;;;;9.91;94.95;99104.63;4994267;28;102917;-62
2022/05/01 04:36:51;;;;;;;;;;;;;;;9.83;95.20;99103.41;4989229;28;102665;-62
2022/05/01 04:39:19;;;;;;;;;;;;;;;9.88;95.19;99107.44;4992316;28;102712;-67
2022/05/01 04:41:47;;;;;;;;;;;;;;;10.01;94.14;99102.25;4988821;28;104180;-62
2022/05/01 04:44:16;;;;;;;;;;;;;;;10.10;93.99;99100.84;4993337;28;103996;-67
2022/05/01 04:46:47;;;;;;;;;;;;;;;10.05;93.46;99105.56;4975783;28;102722;-62
2022/05/01 04:49:15;;;;;;;;;;;;;;;9.70;97.08;99119.19;4975073;28;104093;-62
2022/05/01 04:51:42;;;;;;;;;;;;;;;9.69;97.71;99121.88;4990806;28;104095;-63
2022/05/01 04:54:10;;;;;;;;;;;;;;;9.79;96.52;99117.75;4992207;28;103142;-63
2022/05/01 04:59:25;;;;;;;;;;;;;;;9.74;97.89;99125.13;4991958;28;102724;-63
2022/05/01 05:01:52;;;;;;;;;;;;;;;9.83;96.69;99130.66;4995000;28;103173;-63
2022/05/01 05:04:21;;;;;;;;;;;;;;;9.91;96.42;99128.38;4988927;28;103164;-64
2022/05/01 05:06:52;;;;;;;;;;;;;;;9.77;96.98;99125.75;4989310;28;102851;-67
2022/05/01 05:12:07;;;;;;;;;;;;;;;9.88;96.83;99133.84;4983795;28;104195;-67
2022/05/01 05:14:36;;;;;;;;;;;;;;;9.77;97.25;99136.31;4988755;28;103190;-64
2022/05/01 05:17:06;;;;;;;;;;;;;;;9.73;97.28;99140.09;4991142;28;103740;-63
2022/05/01 05:19:35;;;;;;;;;;;;;;;9.92;98.02;99134.50;4987426;28;104391;-63
2022/05/01 05:22:03;;;;;;;;;;;;;;;10.02;95.93;99137.44;4993555;28;104019;-63
2022/05/01 05:24:31;;;;;;;;;;;;;;;9.99;97.23;99135.84;4993410;28;103189;-64
2022/05/01 05:26:59;;;;;;;;;;;;;;;9.89;95.65;99140.84;4995022;28;102955;-63
2022/05/01 05:29:27;;;;;;;;;;;;;;;10.02;96.38;99145.34;4990498;28;103941;-64
2022/05/01 05:31:56;;;;;;;;;;;;;;;10.11;94.40;99142.97;4990412;28;103362;-63
2022/05/01 05:34:24;;;;;;;;;;;;;;;9.84;96.26;99153.47;4994596;28;103177;-63
2022/05/01 05:36:52;;;;;;;;;;;;;;;9.84;95.73;99150.84;4990589;28;103784;-64
2022/05/01 05:39:20;;;;;;;;;;;;;;;9.98;95.24;99143.84;4990984;28;103760;-63
2022/05/01 05:41:47;;;;;;;;;;;;;;;10.25;94.14;99150.88;4993054;28;103908;-63
2022/05/01 05:44:15;;;;;;;;;;;;;;;10.25;93.57;99144.75;4990744;28;104106;-62
2022/05/01 05:46:43;;;;;;;;;;;;;;;10.35;94.52;99148.50;4995479;28;102786;-62
2022/05/01 05:49:12;;;;;;;;;;;;;;;10.44;93.31;99142.66;4979077;27;103210;-63
2022/05/01 05:51:40;;;;;;;;;;;;;;;10.54;94.39;99148.16;4975496;28;103877;-63
2022/05/01 05:54:08;;;;;;;;;;;;;;;10.47;91.44;99150.34;5004968;28;103150;-63
2022/05/01 05:56:35;;;;;;;;;;;;;;;10.54;91.25;99142.88;4996060;28;102804;-63
2022/05/01 05:59:04;;;;;;;;;;;;;;;10.63;90.38;99159.00;5008640;28;102632;-63
2022/05/01 06:01:31;;;;;;;;;;;;;;;10.66;90.69;99153.50;5004651;28;103219;-63
2022/05/01 06:04:00;;;;;;;;;;;;;;;10.70;90.96;99160.28;5009499;28;102601;-63
2022/05/01 06:06:32;;;;;;;;;;;;;;;10.62;90.78;99157.28;5004471;28;103891;-63
2022/05/01 06:08:59;;;;;;;;;;;;;;;10.71;90.74;99151.41;5000032;28;102709;-63
2022/05/01 06:11:27;;;;;;;;;;;;;;;10.71;89.36;99150.56;5008623;28;103219;-63
2022/05/01 06:13:55;;;;;;;;;;;;;;;10.74;89.08;99150.34;5006997;28;103126;-63
2022/05/01 06:16:23;;;;;;;;;;;;;;;10.76;89.68;99149.31;5010463;28;102601;-64
2022/05/01 06:18:51;;;;;;;;;;;;;;;10.79;89.89;99157.03;5005520;28;103658;-63
2022/05/01 06:21:19;;;;;;;;;;;;;;;10.80;89.64;99156.09;4992839;28;103336;-62
2022/05/01 06:23:51;;;;;;;;;;;;;;;10.67;89.27;99144.63;5007702;28;103103;-62
2022/05/01 06:26:19;;;;;;;;;;;;;;;10.87;89.34;99145.94;5000830;28;102685;-63
2022/05/01 06:28:55;;;;;;;;;;;;;;;11.04;88.80;99149.16;5009745;28;104115;-63
2022/05/01 06:31:22;;;;;;;;;;;;;;;11.22;89.44;99151.53;4998686;28;103895;-63
2022/05/01 06:33:50;;;;;;;;;;;;;;;11.51;88.02;99155.66;5005164;28;103224;-63
2022/05/01 06:36:18;;;;;;;;;;;;;;;11.43;86.68;99148.25;5008891;28;102785;-63
2022/05/01 06:38:47;;;;;;;;;;;;;;;11.47;85.22;99162.13;5010052;28;102615;-63
2022/05/01 06:41:18;;;;;;;;;;;;;;;11.40;85.86;99150.25;4993332;28;104041;-62
2022/05/01 06:43:46;;;;;;;;;;;;;;;11.29;87.23;99152.78;5007456;28;103199;-62
2022/05/01 06:46:14;;;;;;;;;;;;;;;11.32;86.61;99152.56;5009039;28;102652;-63
2022/05/01 06:48:42;;;;;;;;;;;;;;;11.56;85.09;99150.91;5006203;28;103831;-63
2022/05/01 06:51:10;;;;;;;;;;;;;;;11.69;84.06;99149.13;4992840;28;103315;-63
2022/05/01 06:53:38;;;;;;;;;;;;;;;11.56;83.59;99149.09;5005605;28;103192;-66
2022/05/01 06:56:08;;;;;;;;;;;;;;;11.77;83.63;99144.16;5004862;28;102869;-66
2022/05/01 06:58:37;;;;;;;;;;;;;;;11.93;83.33;99150.03;5008318;28;103649;-63
2022/05/01 07:01:07;;;;;;;20.23;16.00;;;;;;;12.04;83.76;99157.25;5003548;28;103248;-64
2022/05/01 07:03:37;;;;;;;19.30;17.27;;;;;;;11.96;83.40;99156.94;5007345;28;104048;-64
2022/05/01 07:06:06;;;;;;;21.93;18.00;;;;;;;11.99;82.55;99154.91;5009239;28;103023;-64
2022/05/01 07:08:34;;;;;;;20.57;18.03;;;;;;;12.35;81.88;99153.25;5012103;28;103808;-64
2022/05/01 07:11:05;;;;;;;19.27;16.87;;;;;;;12.67;81.25;99162.34;5005161;28;103265;-64
2022/05/01 07:13:33;;;;;;;21.20;19.00;;;;;;;12.60;79.95;99156.63;4993312;28;103213;-64
2022/05/01 07:16:03;;;;;;;26.40;23.23;;;;;;;12.21;81.09;99155.06;5009054;28;102731;-64
2022/05/01 07:18:31;;;;;;;25.07;21.60;;;;;;;12.37;80.22;99156.63;5000926;28;104141;-64
2022/05/01 07:20:59;;;;;;;25.57;21.03;;;;;;;12.73;80.17;99160.09;5003829;28;103478;-64
2022/05/01 07:23:28;;;;;;;23.50;20.93;;;;;;;12.66;80.15;99157.97;4995570;28;103344;-64
2022/05/01 07:25:59;;;;;;;21.97;19.33;;;;;;;12.67;80.04;99165.00;5008127;28;102772;-64
2022/05/01 07:28:27;;;;;;;24.00;21.23;;;;;;;12.66;79.13;99164.13;4976988;28;103003;-64
2022/05/01 07:30:55;;;;;;;23.87;21.40;;;;;;;11.95;81.78;99164.03;4984434;28;104578;-64
2022/05/01 07:33:25;;;;;;;28.00;22.73;;;;;;;11.87;81.74;99170.84;5009316;28;104217;-64
2022/05/01 07:35:53;;;;;;;24.07;20.90;;;;;;;12.00;82.89;99166.34;5004905;27;103087;-64
2022/05/01 07:38:21;;;;;;;19.10;17.03;;;;;;;12.44;81.20;99160.50;5013319;28;103873;-64
2022/05/01 07:40:51;;;;;;;23.17;19.73;;;;;;;12.61;80.34;99157.47;5003439;28;104231;-64
2022/05/01 07:43:22;;;;;;;23.23;20.70;;;;;;;12.48;79.91;99156.69;5003151;28;103381;-63
2022/05/01 07:45:50;;;;;;;23.17;20.23;;;;;;;12.49;79.02;99150.44;5001927;28;102847;-63
2022/05/01 07:48:20;;;;;;;22.17;19.87;;;;;;;12.47;79.80;99155.00;5003825;28;103720;-63
2022/05/01 07:50:49;;;;;;;21.90;18.97;;;;;;;11.87;82.12;99154.94;5007454;28;103256;-63
2022/05/01 07:53:19;;;;;;;19.77;17.77;;;;;;;12.62;78.91;99159.19;5004565;28;103249;-63
2022/05/01 07:55:49;;;;;;;;;;;;;;;13.36;77.90;99159.72;4995463;28;102734;-63
2022/05/01 07:58:19;;;;;;;;;;;;;;;13.18;75.05;99153.19;4995229;28;103196;-64
2022/05/01 08:00:47;;;;;;;;;;;;;;;12.71;76.65;99163.81;4990415;28;104257;-64
2022/05/01 08:06:02;;;;;;;;;;;;;;;13.36;76.89;99150.94;5008054;28;102600;-63
2022/05/01 08:08:33;;;;;;;;;;;;;;;13.52;76.63;99151.47;4998234;28;104258;-63
2022/05/01 08:11:04;;;;;;;;;;;;;;;13.18;76.06;99157.66;5000758;28;103764;-63
2022/05/01 08:13:32;;;;;;;;;;;;;;;13.15;77.33;99148.13;5005820;28;103335;-63
2022/05/01 08:16:00;;;;;;;;;;;;;;;13.72;76.17;99149.91;5012918;28;102645;-63
2022/05/01 08:21:32;;;;;;;;;;;;;;;13.62;74.61;99152.44;4920149;28;103270;-63
2022/05/01 08:24:01;;;;;;;;;;;;;;;13.23;72.36;99159.00;4926150;28;103223;-63
2022/05/01 08:26:31;;;;;;;;;;;;;;;13.94;75.77;99147.25;4943420;28;103369;-63
2022/05/01 08:28:59;;;;;;;;;;;;;;;13.45;72.75;99149.38;4999640;28;103056;-62
2022/05/01 08:31:27;;;;;;;;;;;;;;;13.83;73.35;99144.59;4990260;28;104171;-62
2022/05/01 08:33:55;;;;;;;;;;;;;;;13.13;74.98;99150.03;5000808;28;103381;-62
2022/05/01 08:36:24;;;;;;;;;;;;;;;13.71;75.04;99150.88;5004147;28;102627;-62
2022/05/01 08:38:53;;;;;;;;;;;;;;;14.26;73.67;99145.53;5012016;28;102790;-63
2022/05/01 08:41:22;;;;;;;;;;;;;;;14.15;72.51;99152.66;5000788;28;104133;-63
2022/05/01 08:44:16;;;;;;;;;;;;;;;14.60;71.49;99145.47;5014509;27;102787;-63
2022/05/01 08:46:52;;;;;;;;;;;;;;;15.07;70.77;99145.91;5018748;27;103925;-63
2022/05/01 08:49:20;;;;;;;;;;;;;;;14.91;69.00;99140.19;5019123;27;104129;-66
2022/05/01 08:51:49;;;;;;;;;;;;;;;14.73;66.52;99141.72;4997347;27;103946;-66
2022/05/01 08:54:18;;;;;;;;;;;;;;;14.75;68.18;99139.78;5022175;27;102589;-66
2022/05/01 08:56:46;;;;;;;;;;;;;;;15.19;69.12;99138.72;5019120;27;102906;-62
2022/05/01 08:59:16;;;;;;;;;;;;;;;15.14;66.89;99143.59;5017982;27;102984;-62
2022/05/01 09:01:44;;;;;;;;;;;;;;;14.58;70.41;99139.47;5015275;27;104210;-61
2022/05/01 09:04:14;;;;;;;;;;;;;;;13.78;70.78;99146.78;5018793;27;103422;-62
2022/05/01 09:06:43;;;;;;;;;;;;;;;13.77;71.92;99147.75;5007705;27;103845;-62
2022/05/01 09:09:12;;;;;;;;;;;;;;;15.17;71.75;99139.81;5007408;27;103845;-63
2022/05/01 09:14:32;;;;;;;;;;;;;;;14.76;67.18;99128.16;5009968;27;102865;-66
2022/05/01 09:17:13;;;;;;;;;;;;;;;14.43;66.43;99134.41;5012916;27;102892;-66
2022/05/01 09:19:42;;;;;;;;;;;;;;;14.87;66.50;99129.94;5009967;27;103893;-66
2022/05/01 09:22:12;;;;;;;;;;;;;;;14.88;66.76;99129.78;5010011;27;103193;-66
2022/05/01 09:24:40;;;;;;;;;;;;;;;15.38;64.03;99133.53;4998155;27;103281;-66
2022/05/01 09:27:25;;;;;;;;;;;;;;;15.19;63.43;99130.72;4993057;28;103761;-66
2022/05/01 09:30:08;;;;;;;;;;;;;;;14.91;64.83;99136.69;4975596;28;103158;-66
2022/05/01 09:32:37;;;;;;;;;;;;;;;15.49;66.59;99141.50;4990840;28;103233;-66
2022/05/01 09:35:05;;;;;;;;;;;;;;;16.03;62.73;99132.34;4993054;28;102675;-66
2022/05/01 09:37:33;;;;;;;;;;;;;;;16.10;61.77;99136.16;4992519;28;102988;-66
2022/05/01 09:40:01;;;;;;;;;;;;;;;16.13;63.09;99130.56;4975512;28;104564;-66
2022/05/01 09:42:34;;;;;;;;;;;;;;;15.53;64.37;99131.41;5006764;28;103231;-67
2022/05/01 09:45:11;;;;;;;;;;;;;;;15.81;62.66;99129.88;4995829;28;103776;-67
2022/05/01 09:47:39;;;;;;;;;;;;;;;15.71;60.98;99136.97;4966590;28;102961;-67
2022/05/01 09:50:08;;;;;;;;;;;;;;;15.92;62.38;99137.75;4993706;28;104335;-67
2022/05/01 09:52:55;;;;;;;;;;;;;;;16.06;62.05;99129.41;4994508;28;103349;-67
2022/05/01 09:55:23;;;;;;;;;;;;;;;16.41;60.21;99127.13;4984233;28;102662;-67
2022/05/01 09:58:07;;;;;;;;;;;;;;;16.23;61.13;99123.44;4983860;28;102778;-68
2022/05/01 10:00:37;;;;;;;;;;;;;;;15.77;62.42;99139.13;4982118;28;103637;-68
2022/05/01 10:03:22;;;;;;;;;;;;;;;16.32;60.69;99130.63;4996260;28;104185;-68
2022/05/01 10:05:50;;;;;;;;;;;;;;;15.22;61.61;99133.13;4980337;28;102710;-67
2022/05/01 10:08:19;;;;;;;;;;;;;;;15.89;62.99;99124.72;4975077;28;104446;-68
2022/05/01 10:10:47;;;;;;;;;;;;;;;16.72;60.72;99118.09;4994361;28;103222;-68
2022/05/01 10:13:16;;;;;;;;;;;;;;;16.78;62.71;99120.22;4999168;28;104281;-67
2022/05/01 10:16:07;;;;;;;;;;;;;;;17.43;60.14;99112.44;4966156;28;103320;-67
2022/05/01 10:18:36;;;;;;;;;;;;;;;17.58;56.35;99113.66;4979543;28;104045;-67
2022/05/01 10:21:04;;;;;;;;;;;;;;;16.69;58.58;99115.72;4979451;28;104075;-67
2022/05/01 10:23:34;;;;;;;;;;;;;;;17.72;57.54;99114.06;5001332;28;103261;-67
2022/05/01 10:26:14;;;;;;;;;;;;;;;18.19;56.11;99108.66;4969798;27;102975;-67
2022/05/01 10:29:26;;;;;;;;;;;;;;;17.59;56.32;99113.53;4996956;28;103325;-63
2022/05/01 10:35:05;;;;;;;;;;;;;;;17.92;55.12;99109.47;4997215;28;103152;-63
2022/05/01 10:37:47;;;;;;;;;;;;;;;17.74;55.58;99106.72;4991557;28;103833;-67
2022/05/01 10:40:15;;;;;;;;;;;;;;;16.32;58.10;99098.63;4987342;28;103950;-68
2022/05/01 10:42:45;;;;;;;;;;;;;;;16.50;56.29;99097.00;4996099;28;103199;-67
2022/05/01 10:45:32;;;;;;;;;;;;;;;17.68;58.74;99090.47;4977893;28;104114;-67
2022/05/01 10:48:10;;;;;;;;;;;;;;;17.88;55.67;99092.88;4995025;28;103056;-67
2022/05/01 10:50:42;;;;;;;;;;;;;;;16.16;58.58;99093.84;4986643;28;103919;-63
2022/05/01 10:53:11;;;;;;;;;;;;;;;15.72;59.20;99094.22;4997355;28;104158;-67
2022/05/01 10:55:43;;;;;;;;;;;;;;;15.45;61.43;99092.09;4999399;27;104336;-68
2022/05/01 10:58:22;;;;;;;;;;;;;;;14.82;66.23;99092.25;5000124;28;102798;-68
2022/05/01 11:00:50;;;;;;;;;;;;;;;15.12;66.23;99088.81;5000190;28;102734;-68
2022/05/01 11:03:26;;;;;;;;;;;;;;;14.48;62.85;99084.38;5002402;28;103717;-68
2022/05/01 11:05:56;;;;;;;;;;;;;;;14.96;62.42;99083.94;4999348;28;103300;-62
2022/05/01 11:08:27;;;;;;;;;;;;;;;15.25;61.73;99084.97;4994757;28;102719;-63
2022/05/01 11:10:56;;;;;;;;;;;;;;;15.03;62.26;99085.97;4980925;28;103768;-63
2022/05/01 11:13:32;;;;;;;;;;;;;;;15.31;61.13;99084.44;5000136;28;103313;-66
2022/05/01 11:16:00;;;;;;;;;;;;;;;15.23;58.95;99081.59;4981315;28;104107;-66
2022/05/01 11:18:30;;;;;;;;;;;;;;;15.71;58.27;99076.56;5002009;28;102792;-66
2022/05/01 11:21:13;;;;;;;;;;;;;;;15.88;59.64;99078.59;4981530;28;102758;-66
2022/05/01 11:23:44;;;;;;;;;;;;;;;15.79;59.64;99075.88;4990335;28;103646;-63
2022/05/01 11:26:16;;;;;;;;;;;;;;;15.36;60.27;99081.38;4998532;28;103278;-63
2022/05/01 11:28:49;;;;;;;;;;;;;;;14.90;59.36;99081.81;5002380;28;103871;-63
2022/05/01 11:31:35;;;;;;;;;;;;;;;15.45;61.75;99076.13;5002423;28;102996;-63
2022/05/01 11:34:22;;;;;;;;;;;;;;;15.08;59.99;99072.25;4983724;28;103886;-63
2022/05/01 11:36:53;;;;;;;;;;;;;;;17.57;58.22;99063.91;4997552;28;103191;-63
2022/05/01 11:39:22;;;;;;;;;;;;;;;18.50;54.20;99062.72;4991187;28;103085;-62
2022/05/01 11:42:00;;;;;;;;;;;;;;;18.91;51.87;99066.63;5018373;27;104115;-63
2022/05/01 11:44:29;;;;;;;;;;;;;;;17.29;54.41;99068.31;4989392;28;104989;-62
2022/05/01 11:46:58;;;;;;;;;;;;;;;15.42;56.91;99071.06;5003504;28;103226;-63
2022/05/01 11:49:28;;;;;;;;;;;;;;;17.07;54.77;99053.47;5002082;28;102606;-64
2022/05/01 11:51:58;;;;;;;;;;;;;;;17.70;53.10;99051.06;4976326;28;102954;-63
2022/05/01 11:54:28;;;;;;;;;;;;;;;16.61;53.17;99056.88;4998042;28;103563;-63
2022/05/01 12:02:27;;;;;;;;;;;;;;;16.11;56.66;99052.56;5002677;28;103904;-58
2022/05/01 12:04:58;;;;;;;;;;;;;;;17.04;56.06;99045.72;4999837;28;103282;-58
2022/05/01 12:07:27;;;;;;;;;;;;;;;15.71;56.31;99051.75;4999690;28;103180;-62
2022/05/01 12:09:55;;;;;;;;;;;;;;;17.33;54.90;99048.34;4999984;28;103011;-62
2022/05/01 12:12:28;;;;;;;;;;;;;;;16.66;53.89;99043.97;4997360;28;103092;-64
2022/05/01 12:14:57;;;;;;;;;;;;;;;16.57;52.28;99041.28;4995416;28;104198;-63
2022/05/01 12:17:25;;;;;;;;;;;;;;;17.62;55.04;99038.44;4977951;28;103155;-63
2022/05/01 12:19:54;;;;;;;;;;;;;;;18.30;51.35;99033.56;4993793;28;103293;-69
2022/05/01 12:22:24;;;;;;;;;;;;;;;18.05;54.00;99039.66;5002142;28;103861;-69
2022/05/01 12:24:55;;;;;;;;;;;;;;;18.53;51.46;99040.16;5001604;28;104335;-69
2022/05/01 12:27:25;;;;;;;;;;;;;;;18.75;50.14;99034.34;5002632;28;103237;-69
2022/05/01 12:29:54;;;;;;;;;;;;;;;17.31;52.37;99029.81;5005333;28;103539;-69
2022/05/01 12:32:22;;;;;;;;;;;;;;;18.11;51.82;99036.34;4999130;28;104068;-69
2022/05/01 12:34:56;;;;;;;;;;;;;;;18.69;52.21;99018.09;4984100;28;104249;-69
2022/05/01 12:37:27;;;;;;;;;;;;;;;17.89;50.25;99026.91;5002193;28;103166;-63
2022/05/01 12:39:59;;;;;;;;;;;;;;;16.90;52.07;99030.16;5001855;28;102605;-66
2022/05/01 12:45:14;;;;;;;;;;;;;;;17.19;53.91;99025.63;4997471;28;103230;-63
2022/05/01 12:47:42;;;;;;;;;;;;;;;18.08;52.88;99024.13;4980644;27;104143;-63
2022/05/01 12:50:11;;;;;;;;;;;;;;;19.44;52.40;99017.47;4982006;28;102710;-63
2022/05/01 12:52:41;;;;;;;;;;;;;;;18.19;50.25;99012.41;4982276;28;103048;-68
2022/05/01 12:55:16;;;;;;;;;;;;;;;17.54;48.77;99002.78;4980856;28;104193;-69
2022/05/01 12:57:50;;;;;;;;;;;;;;;17.00;52.38;99006.13;4982951;28;103216;-68
2022/05/01 13:00:33;;;;;;;;;;;;;;;18.36;50.96;99003.53;4977935;28;102590;-69